Terminal Aerodrome Forecast
Issued by NWS

Home | Current Version | Previous Version | Text Only | Print | Product List | Glossary On
Versions: 1 2 3 4 5 6 7 8 9 10 11 12 13 14
768
FTUS43 KMQT 211131
TAFSAW
TAF
KSAW 211131Z 2112/2212 20009KT P6SM BKN200 WS010/22040KT
     FM211300 20010KT P6SM SCT200
     FM211700 19014G22KT P6SM SCT200
     FM212300 18014KT P6SM SCT200
     FM220000 18014KT P6SM BKN120 WS010/19045KT
     FM221000 18011G18KT P6SM BKN045 WS010/21040KT=

USA.gov is the U.S. government's official web portal to all federal, state and local government web resources and services.